RYR14T EDDK-LOWW
Flight info
| Callsign | RYR14T |
|---|---|
| Flight time | 1h 4m |
| Altitude | 35000 |
| Route | KUMIK2Q KUMIK L603 TESGA DCT ESATI DCT BARSU DCT EKSOS DCT LULAR DCT RUDAP DCT BUDEX BUDEX2W |
| Aircraft | B738/M-SDE2E3FGHIRWXY/LB1 |
Departure
| Time | 2026-05-04 19:47 |
|---|---|
| Airport | Cologne Bonn Airport (EDDK) |
Arrival
| Time | 2026-05-04 20:51 |
|---|---|
| Airport | Vienna International Airport (LOWW) |
| Time | Latitude | Longitude | Altitude | Speed | Heading |
|---|---|---|---|---|---|
| 2026-05-04 18:51 | 50.87802 | 7.12423 | 234 ft | 0 kts | 288° |
| 2026-05-04 19:30 | 50.87800 | 7.12434 | 204 ft | 4 kts | 288° |
| 2026-05-04 19:30 | 50.87792 | 7.12475 | 232 ft | 4 kts | 288° |
| 2026-05-04 19:31 | 50.87785 | 7.12507 | 231 ft | 4 kts | 296° |
| 2026-05-04 19:31 | 50.87769 | 7.12537 | 232 ft | 4 kts | 340° |
| 2026-05-04 19:31 | 50.87746 | 7.12539 | 231 ft | 3 kts | 18° |
| 2026-05-04 19:31 | 50.87720 | 7.12526 | 232 ft | 4 kts | 18° |
| 2026-05-04 19:32 | 50.87709 | 7.12520 | 231 ft | 0 kts | 18° |
| 2026-05-04 19:38 | 50.87710 | 7.12521 | 231 ft | 1 kts | 18° |
| 2026-05-04 19:38 | 50.87719 | 7.12526 | 232 ft | 2 kts | 19° |
| 2026-05-04 19:38 | 50.87735 | 7.12538 | 235 ft | 5 kts | 31° |
| 2026-05-04 19:38 | 50.87762 | 7.12593 | 233 ft | 7 kts | 71° |
| 2026-05-04 19:39 | 50.87770 | 7.12666 | 231 ft | 7 kts | 90° |
| 2026-05-04 19:39 | 50.87750 | 7.12730 | 232 ft | 7 kts | 136° |
| 2026-05-04 19:39 | 50.87716 | 7.12780 | 231 ft | 7 kts | 137° |
| 2026-05-04 19:39 | 50.87682 | 7.12828 | 231 ft | 7 kts | 139° |
| 2026-05-04 19:40 | 50.87632 | 7.12898 | 231 ft | 14 kts | 137° |
| 2026-05-04 19:40 | 50.87540 | 7.13030 | 231 ft | 19 kts | 137° |
| 2026-05-04 19:40 | 50.87443 | 7.13171 | 231 ft | 19 kts | 137° |
| 2026-05-04 19:40 | 50.87347 | 7.13311 | 231 ft | 18 kts | 137° |
| 2026-05-04 19:41 | 50.87255 | 7.13445 | 233 ft | 18 kts | 137° |
| 2026-05-04 19:41 | 50.87165 | 7.13574 | 236 ft | 17 kts | 137° |
| 2026-05-04 19:41 | 50.87079 | 7.13699 | 240 ft | 16 kts | 137° |
| 2026-05-04 19:41 | 50.86996 | 7.13819 | 243 ft | 16 kts | 138° |
| 2026-05-04 19:42 | 50.86917 | 7.13935 | 250 ft | 15 kts | 137° |
| 2026-05-04 19:42 | 50.86841 | 7.14045 | 254 ft | 15 kts | 137° |
| 2026-05-04 19:42 | 50.86759 | 7.14130 | 254 ft | 14 kts | 166° |
| 2026-05-04 19:42 | 50.86681 | 7.14213 | 258 ft | 13 kts | 137° |
| 2026-05-04 19:43 | 50.86616 | 7.14310 | 260 ft | 13 kts | 136° |
| 2026-05-04 19:43 | 50.86551 | 7.14406 | 262 ft | 13 kts | 137° |
| 2026-05-04 19:43 | 50.86488 | 7.14497 | 266 ft | 12 kts | 138° |
| 2026-05-04 19:43 | 50.86425 | 7.14586 | 270 ft | 12 kts | 138° |
| 2026-05-04 19:44 | 50.86362 | 7.14677 | 273 ft | 13 kts | 137° |
| 2026-05-04 19:44 | 50.86287 | 7.14786 | 278 ft | 16 kts | 137° |
| 2026-05-04 19:44 | 50.86201 | 7.14912 | 283 ft | 18 kts | 137° |
| 2026-05-04 19:44 | 50.86104 | 7.15053 | 286 ft | 19 kts | 137° |
| 2026-05-04 19:45 | 50.86046 | 7.15179 | 294 ft | 13 kts | 105° |
| 2026-05-04 19:45 | 50.86071 | 7.15311 | 294 ft | 13 kts | 46° |
| 2026-05-04 19:45 | 50.86128 | 7.15357 | 289 ft | 5 kts | 9° |
| 2026-05-04 19:45 | 50.86178 | 7.15349 | 288 ft | 10 kts | 345° |
| 2026-05-04 19:46 | 50.86272 | 7.15308 | 287 ft | 18 kts | 347° |
| 2026-05-04 19:46 | 50.86418 | 7.15237 | 284 ft | 25 kts | 334° |
| 2026-05-04 19:46 | 50.86592 | 7.15015 | 274 ft | 62 kts | 317° |
| 2026-05-04 19:46 | 50.87184 | 7.14157 | 247 ft | 165 kts | 317° |
| 2026-05-04 19:47 | 50.88200 | 7.12706 | 747 ft | 210 kts | 318° |
| 2026-05-04 19:47 | 50.89292 | 7.11183 | 2139 ft | 211 kts | 317° |
| 2026-05-04 19:47 | 50.90447 | 7.09526 | 2721 ft | 248 kts | 319° |
| 2026-05-04 19:47 | 50.92147 | 7.08422 | 2753 ft | 297 kts | 357° |
| 2026-05-04 19:48 | 50.94108 | 7.09607 | 3469 ft | 312 kts | 46° |
| 2026-05-04 19:48 | 50.95058 | 7.12542 | 4937 ft | 297 kts | 82° |
| 2026-05-04 19:48 | 50.95202 | 7.15723 | 6402 ft | 285 kts | 89° |
| 2026-05-04 19:48 | 50.95515 | 7.18820 | 7616 ft | 286 kts | 79° |
| 2026-05-04 19:49 | 50.96140 | 7.21851 | 8597 ft | 294 kts | 71° |
| 2026-05-04 19:49 | 50.96983 | 7.24944 | 8715 ft | 314 kts | 68° |
| 2026-05-04 19:49 | 50.97928 | 7.27998 | 8938 ft | 304 kts | 66° |
| 2026-05-04 19:49 | 50.98883 | 7.30992 | 9605 ft | 306 kts | 66° |
| 2026-05-04 19:50 | 50.99850 | 7.34027 | 10592 ft | 308 kts | 66° |
| 2026-05-04 19:50 | 51.00812 | 7.37065 | 11606 ft | 309 kts | 66° |
| 2026-05-04 19:50 | 51.01695 | 7.40185 | 12493 ft | 312 kts | 78° |
| 2026-05-04 19:50 | 51.01829 | 7.43607 | 12943 ft | 326 kts | 103° |
| 2026-05-04 19:51 | 51.01219 | 7.47200 | 13220 ft | 348 kts | 110° |
| 2026-05-04 19:51 | 51.00466 | 7.50929 | 13871 ft | 359 kts | 111° |
| 2026-05-04 19:51 | 50.99687 | 7.54716 | 14679 ft | 363 kts | 111° |
| 2026-05-04 19:51 | 50.98907 | 7.58556 | 15516 ft | 369 kts | 111° |
| 2026-05-04 19:52 | 50.98120 | 7.62480 | 16266 ft | 377 kts | 110° |
| 2026-05-04 19:52 | 50.97329 | 7.66472 | 17090 ft | 381 kts | 110° |
| 2026-05-04 19:52 | 50.96534 | 7.70502 | 17930 ft | 385 kts | 110° |
| 2026-05-04 19:52 | 50.95730 | 7.74577 | 18646 ft | 390 kts | 110° |
| 2026-05-04 19:53 | 50.94912 | 7.78708 | 19296 ft | 394 kts | 110° |
| 2026-05-04 19:53 | 50.94015 | 7.82756 | 19936 ft | 396 kts | 119° |
| 2026-05-04 19:53 | 50.92588 | 7.86476 | 20593 ft | 395 kts | 127° |
| 2026-05-04 19:53 | 50.90977 | 7.90025 | 21235 ft | 398 kts | 133° |
| 2026-05-04 19:54 | 50.89085 | 7.93224 | 21839 ft | 400 kts | 138° |
| 2026-05-04 19:54 | 50.87082 | 7.96315 | 22470 ft | 403 kts | 139° |
| 2026-05-04 19:54 | 50.85044 | 7.99396 | 23080 ft | 407 kts | 139° |
| 2026-05-04 19:54 | 50.82996 | 8.02500 | 23715 ft | 409 kts | 140° |
| 2026-05-04 19:55 | 50.80950 | 8.05630 | 24303 ft | 410 kts | 139° |
| 2026-05-04 19:55 | 50.78905 | 8.08782 | 24820 ft | 413 kts | 139° |
| 2026-05-04 19:55 | 50.76875 | 8.11928 | 25300 ft | 416 kts | 139° |
| 2026-05-04 19:55 | 50.74804 | 8.15148 | 25797 ft | 419 kts | 139° |
| 2026-05-04 19:56 | 50.72727 | 8.18378 | 26289 ft | 421 kts | 139° |
| 2026-05-04 19:56 | 50.70633 | 8.21633 | 26768 ft | 424 kts | 139° |
| 2026-05-04 19:56 | 50.68525 | 8.24907 | 27228 ft | 426 kts | 139° |
| 2026-05-04 19:56 | 50.66407 | 8.28191 | 27692 ft | 429 kts | 140° |
| 2026-05-04 19:57 | 50.64274 | 8.31493 | 28141 ft | 431 kts | 140° |
| 2026-05-04 19:57 | 50.62603 | 8.34076 | 28510 ft | 433 kts | 140° |
| 2026-05-04 19:57 | 50.60718 | 8.36987 | 28891 ft | 435 kts | 140° |
| 2026-05-04 19:58 | 50.58551 | 8.40329 | 29292 ft | 438 kts | 140° |
| 2026-05-04 19:58 | 50.56357 | 8.43707 | 29529 ft | 444 kts | 139° |
| 2026-05-04 19:58 | 50.54143 | 8.47111 | 29893 ft | 446 kts | 139° |
| 2026-05-04 19:58 | 50.51928 | 8.50516 | 30386 ft | 445 kts | 139° |
| 2026-05-04 19:59 | 50.49721 | 8.53907 | 30910 ft | 442 kts | 140° |
| 2026-05-04 19:59 | 50.47532 | 8.57264 | 31449 ft | 439 kts | 140° |
| 2026-05-04 19:59 | 50.45353 | 8.60596 | 31961 ft | 436 kts | 140° |
| 2026-05-04 19:59 | 50.43207 | 8.63867 | 32402 ft | 435 kts | 141° |
| 2026-05-04 20:00 | 50.41029 | 8.67157 | 32831 ft | 435 kts | 141° |
| 2026-05-04 20:00 | 50.38854 | 8.70430 | 33290 ft | 433 kts | 141° |
| 2026-05-04 20:00 | 50.36682 | 8.73694 | 33762 ft | 431 kts | 141° |
| 2026-05-04 20:00 | 50.34521 | 8.76940 | 34175 ft | 430 kts | 141° |
| 2026-05-04 20:01 | 50.32362 | 8.80179 | 34506 ft | 430 kts | 141° |
| 2026-05-04 20:01 | 50.30201 | 8.83420 | 34808 ft | 431 kts | 141° |
| 2026-05-04 20:01 | 50.28033 | 8.86665 | 34989 ft | 434 kts | 141° |
| 2026-05-04 20:02 | 50.23644 | 8.93226 | 34978 ft | 435 kts | 141° |
| 2026-05-04 20:02 | 50.19340 | 8.99653 | 34984 ft | 428 kts | 141° |
| 2026-05-04 20:03 | 50.15023 | 9.06072 | 34988 ft | 429 kts | 141° |
| 2026-05-04 20:03 | 50.10692 | 9.12499 | 34989 ft | 430 kts | 141° |
| 2026-05-04 20:04 | 50.06865 | 9.19725 | 34986 ft | 443 kts | 122° |
| 2026-05-04 20:04 | 50.05669 | 9.24174 | 34975 ft | 450 kts | 110° |
| 2026-05-04 20:04 | 50.05010 | 9.28971 | 34997 ft | 454 kts | 104° |
| 2026-05-04 20:05 | 50.03983 | 9.38632 | 34980 ft | 456 kts | 103° |
| 2026-05-04 20:05 | 50.02941 | 9.48375 | 34988 ft | 457 kts | 104° |
| 2026-05-04 20:06 | 50.01842 | 9.58106 | 34995 ft | 457 kts | 104° |
| 2026-05-04 20:06 | 50.00713 | 9.67840 | 34978 ft | 456 kts | 104° |
| 2026-05-04 20:07 | 49.99577 | 9.77525 | 34981 ft | 455 kts | 104° |
| 2026-05-04 20:07 | 49.98437 | 9.87193 | 34983 ft | 454 kts | 104° |
| 2026-05-04 20:08 | 49.97292 | 9.96835 | 34970 ft | 453 kts | 104° |
| 2026-05-04 20:08 | 49.96142 | 10.06454 | 34960 ft | 452 kts | 104° |
| 2026-05-04 20:09 | 49.94993 | 10.15993 | 34962 ft | 452 kts | 104° |
| 2026-05-04 20:09 | 49.93830 | 10.25578 | 34961 ft | 452 kts | 104° |
| 2026-05-04 20:10 | 49.92659 | 10.35167 | 34970 ft | 452 kts | 104° |
| 2026-05-04 20:10 | 49.90929 | 10.44469 | 34979 ft | 446 kts | 116° |
| 2026-05-04 20:11 | 49.88558 | 10.53368 | 34962 ft | 447 kts | 116° |
| 2026-05-04 20:11 | 49.86184 | 10.62224 | 34959 ft | 449 kts | 116° |
| 2026-05-04 20:12 | 49.83826 | 10.71189 | 34960 ft | 450 kts | 116° |
| 2026-05-04 20:12 | 49.81472 | 10.80192 | 34950 ft | 452 kts | 116° |
| 2026-05-04 20:13 | 49.79110 | 10.89210 | 34957 ft | 452 kts | 116° |
| 2026-05-04 20:13 | 49.76753 | 10.98164 | 34937 ft | 452 kts | 116° |
| 2026-05-04 20:14 | 49.74374 | 11.07160 | 34942 ft | 452 kts | 116° |
| 2026-05-04 20:14 | 49.71991 | 11.16139 | 34938 ft | 451 kts | 116° |
| 2026-05-04 20:15 | 49.69605 | 11.25096 | 34938 ft | 450 kts | 116° |
| 2026-05-04 20:15 | 49.67236 | 11.33959 | 34935 ft | 449 kts | 116° |
| 2026-05-04 20:16 | 49.64909 | 11.42882 | 34946 ft | 449 kts | 112° |
| 2026-05-04 20:16 | 49.62981 | 11.52047 | 34958 ft | 449 kts | 110° |
| 2026-05-04 20:17 | 49.61130 | 11.61226 | 34973 ft | 448 kts | 110° |
| 2026-05-04 20:17 | 49.59251 | 11.70371 | 34972 ft | 446 kts | 111° |
| 2026-05-04 20:18 | 49.57364 | 11.79402 | 34970 ft | 445 kts | 111° |
| 2026-05-04 20:18 | 49.55454 | 11.88464 | 34984 ft | 445 kts | 111° |
| 2026-05-04 20:19 | 49.53539 | 11.97508 | 34985 ft | 445 kts | 111° |
| 2026-05-04 20:19 | 49.51614 | 12.06565 | 34970 ft | 445 kts | 111° |
| 2026-05-04 20:20 | 49.49685 | 12.15605 | 34967 ft | 445 kts | 111° |
| 2026-05-04 20:20 | 49.47756 | 12.24602 | 34935 ft | 446 kts | 111° |
| 2026-05-04 20:21 | 49.45043 | 12.37192 | 34934 ft | 448 kts | 111° |
| 2026-05-04 20:21 | 49.42084 | 12.50838 | 34934 ft | 450 kts | 111° |
| 2026-05-04 20:22 | 49.40094 | 12.59963 | 34935 ft | 453 kts | 111° |
| 2026-05-04 20:22 | 49.38080 | 12.69161 | 34951 ft | 461 kts | 111° |
| 2026-05-04 20:23 | 49.36019 | 12.78473 | 34936 ft | 460 kts | 112° |
| 2026-05-04 20:23 | 49.33778 | 12.87653 | 34934 ft | 459 kts | 114° |
| 2026-05-04 20:24 | 49.31494 | 12.96779 | 34934 ft | 458 kts | 114° |
| 2026-05-04 20:24 | 49.29232 | 13.05902 | 34934 ft | 457 kts | 114° |
| 2026-05-04 20:25 | 49.26995 | 13.14945 | 34939 ft | 457 kts | 114° |
| 2026-05-04 20:25 | 49.24742 | 13.24023 | 34940 ft | 456 kts | 114° |
| 2026-05-04 20:26 | 49.22423 | 13.33043 | 34934 ft | 455 kts | 115° |
| 2026-05-04 20:26 | 49.19997 | 13.41977 | 34932 ft | 455 kts | 116° |
| 2026-05-04 20:27 | 49.17565 | 13.50894 | 34941 ft | 455 kts | 115° |
| 2026-05-04 20:27 | 49.15155 | 13.59759 | 34950 ft | 455 kts | 115° |
| 2026-05-04 20:28 | 49.12726 | 13.68694 | 34943 ft | 456 kts | 115° |
| 2026-05-04 20:28 | 49.10280 | 13.77634 | 34940 ft | 456 kts | 117° |
| 2026-05-04 20:29 | 49.07769 | 13.86503 | 34907 ft | 449 kts | 115° |
| 2026-05-04 20:29 | 49.06603 | 13.90846 | 34677 ft | 438 kts | 115° |
| 2026-05-04 20:29 | 49.05457 | 13.95120 | 34279 ft | 433 kts | 115° |
| 2026-05-04 20:30 | 49.04304 | 13.99375 | 33458 ft | 438 kts | 116° |
| 2026-05-04 20:30 | 49.03118 | 14.03695 | 32409 ft | 446 kts | 116° |
| 2026-05-04 20:30 | 49.02315 | 14.06603 | 31708 ft | 452 kts | 115° |
| 2026-05-04 20:30 | 49.00706 | 14.12408 | 31189 ft | 443 kts | 115° |
| 2026-05-04 20:31 | 48.99496 | 14.16764 | 31080 ft | 452 kts | 115° |
| 2026-05-04 20:31 | 48.98252 | 14.21228 | 30959 ft | 462 kts | 115° |
| 2026-05-04 20:31 | 48.95722 | 14.30300 | 30925 ft | 467 kts | 115° |
| 2026-05-04 20:32 | 48.93154 | 14.37415 | 30916 ft | 459 kts | 128° |
| 2026-05-04 20:32 | 48.88570 | 14.46277 | 30908 ft | 459 kts | 131° |
| 2026-05-04 20:33 | 48.84582 | 14.53885 | 30561 ft | 463 kts | 130° |
| 2026-05-04 20:33 | 48.83274 | 14.56435 | 30228 ft | 459 kts | 130° |
| 2026-05-04 20:33 | 48.81336 | 14.60249 | 29692 ft | 454 kts | 129° |
| 2026-05-04 20:34 | 48.79407 | 14.64061 | 29146 ft | 458 kts | 129° |
| 2026-05-04 20:34 | 48.77461 | 14.67901 | 28602 ft | 460 kts | 129° |
| 2026-05-04 20:34 | 48.74868 | 14.73006 | 27888 ft | 463 kts | 129° |
| 2026-05-04 20:34 | 48.72900 | 14.76868 | 27367 ft | 463 kts | 129° |
| 2026-05-04 20:35 | 48.71570 | 14.79472 | 27021 ft | 464 kts | 129° |
| 2026-05-04 20:35 | 48.69617 | 14.83283 | 26509 ft | 464 kts | 129° |
| 2026-05-04 20:35 | 48.67649 | 14.87116 | 26190 ft | 455 kts | 129° |
| 2026-05-04 20:35 | 48.65750 | 14.90813 | 26094 ft | 436 kts | 129° |
| 2026-05-04 20:36 | 48.63926 | 14.94363 | 25985 ft | 419 kts | 129° |
| 2026-05-04 20:36 | 48.62169 | 14.97774 | 25882 ft | 404 kts | 129° |
| 2026-05-04 20:36 | 48.60476 | 15.01058 | 25804 ft | 389 kts | 129° |
| 2026-05-04 20:36 | 48.58940 | 15.04352 | 25638 ft | 380 kts | 118° |
| 2026-05-04 20:37 | 48.58103 | 15.08116 | 25291 ft | 378 kts | 105° |
| 2026-05-04 20:37 | 48.57470 | 15.11954 | 24845 ft | 377 kts | 105° |
| 2026-05-04 20:37 | 48.56853 | 15.15741 | 24407 ft | 376 kts | 105° |
| 2026-05-04 20:37 | 48.56219 | 15.19561 | 24003 ft | 375 kts | 105° |
| 2026-05-04 20:38 | 48.55578 | 15.23360 | 23615 ft | 372 kts | 105° |
| 2026-05-04 20:38 | 48.54932 | 15.27126 | 23184 ft | 368 kts | 105° |
| 2026-05-04 20:38 | 48.54287 | 15.30856 | 22697 ft | 367 kts | 105° |
| 2026-05-04 20:38 | 48.53641 | 15.34577 | 22248 ft | 365 kts | 106° |
| 2026-05-04 20:39 | 48.52999 | 15.38267 | 21851 ft | 362 kts | 106° |
| 2026-05-04 20:39 | 48.52360 | 15.41924 | 21473 ft | 359 kts | 106° |
| 2026-05-04 20:39 | 48.51792 | 15.45609 | 20615 ft | 368 kts | 99° |
| 2026-05-04 20:39 | 48.51531 | 15.49485 | 19536 ft | 385 kts | 95° |
| 2026-05-04 20:40 | 48.51381 | 15.53580 | 18772 ft | 393 kts | 94° |
| 2026-05-04 20:40 | 48.51222 | 15.57666 | 18317 ft | 388 kts | 95° |
| 2026-05-04 20:40 | 48.51019 | 15.61725 | 17795 ft | 388 kts | 96° |
| 2026-05-04 20:40 | 48.50791 | 15.65787 | 17282 ft | 390 kts | 96° |
| 2026-05-04 20:41 | 48.50553 | 15.69854 | 16742 ft | 390 kts | 96° |
| 2026-05-04 20:41 | 48.50306 | 15.73914 | 16228 ft | 386 kts | 97° |
| 2026-05-04 20:41 | 48.50060 | 15.77924 | 15884 ft | 379 kts | 97° |
| 2026-05-04 20:41 | 48.49838 | 15.81779 | 15764 ft | 358 kts | 97° |
| 2026-05-04 20:42 | 48.49630 | 15.85392 | 15670 ft | 344 kts | 97° |
| 2026-05-04 20:42 | 48.49424 | 15.88920 | 15589 ft | 331 kts | 97° |
| 2026-05-04 20:42 | 48.49220 | 15.92338 | 15374 ft | 324 kts | 97° |
| 2026-05-04 20:42 | 48.48931 | 15.95679 | 15001 ft | 321 kts | 104° |
| 2026-05-04 20:43 | 48.48403 | 15.98937 | 14575 ft | 319 kts | 111° |
| 2026-05-04 20:43 | 48.47588 | 16.02119 | 13687 ft | 334 kts | 115° |
| 2026-05-04 20:43 | 48.46660 | 16.05398 | 12879 ft | 343 kts | 116° |
| 2026-05-04 20:43 | 48.45706 | 16.08685 | 12379 ft | 342 kts | 116° |
| 2026-05-04 20:44 | 48.44749 | 16.11939 | 11926 ft | 338 kts | 116° |
| 2026-05-04 20:44 | 48.43762 | 16.15074 | 11494 ft | 334 kts | 121° |
| 2026-05-04 20:44 | 48.42515 | 16.17991 | 11011 ft | 330 kts | 129° |
| 2026-05-04 20:44 | 48.41101 | 16.20726 | 10304 ft | 335 kts | 130° |
| 2026-05-04 20:45 | 48.39632 | 16.23497 | 9540 ft | 342 kts | 127° |
| 2026-05-04 20:45 | 48.38368 | 16.26529 | 8949 ft | 341 kts | 123° |
| 2026-05-04 20:45 | 48.37185 | 16.29472 | 8775 ft | 317 kts | 123° |
| 2026-05-04 20:45 | 48.36082 | 16.32207 | 8627 ft | 295 kts | 123° |
| 2026-05-04 20:46 | 48.35046 | 16.34780 | 8261 ft | 284 kts | 123° |
| 2026-05-04 20:46 | 48.34034 | 16.37298 | 7818 ft | 278 kts | 123° |
| 2026-05-04 20:46 | 48.33018 | 16.39732 | 7378 ft | 272 kts | 125° |
| 2026-05-04 20:46 | 48.31988 | 16.42041 | 6949 ft | 267 kts | 126° |
| 2026-05-04 20:47 | 48.30950 | 16.44350 | 6390 ft | 267 kts | 126° |
| 2026-05-04 20:47 | 48.29896 | 16.46665 | 5773 ft | 269 kts | 127° |
| 2026-05-04 20:47 | 48.28822 | 16.48961 | 5247 ft | 267 kts | 128° |
| 2026-05-04 20:47 | 48.27607 | 16.50942 | 4962 ft | 251 kts | 150° |
| 2026-05-04 20:48 | 48.26029 | 16.51865 | 4592 ft | 240 kts | 168° |
| 2026-05-04 20:48 | 48.24432 | 16.52521 | 4191 ft | 236 kts | 167° |
| 2026-05-04 20:48 | 48.22887 | 16.53193 | 4094 ft | 225 kts | 166° |
| 2026-05-04 20:48 | 48.21476 | 16.54202 | 3697 ft | 229 kts | 157° |
| 2026-05-04 20:49 | 48.20008 | 16.55066 | 2974 ft | 227 kts | 167° |
| 2026-05-04 20:49 | 48.18514 | 16.55533 | 2358 ft | 212 kts | 173° |
| 2026-05-04 20:49 | 48.17097 | 16.55856 | 1742 ft | 200 kts | 174° |
| 2026-05-04 20:49 | 48.15778 | 16.56201 | 1401 ft | 180 kts | 167° |
| 2026-05-04 20:50 | 48.14633 | 16.56687 | 1172 ft | 162 kts | 165° |
| 2026-05-04 20:50 | 48.13601 | 16.57126 | 999 ft | 144 kts | 163° |
| 2026-05-04 20:50 | 48.12701 | 16.57511 | 811 ft | 125 kts | 162° |
| 2026-05-04 20:50 | 48.11919 | 16.57841 | 638 ft | 109 kts | 162° |
| 2026-05-04 20:51 | 48.11253 | 16.58129 | 615 ft | 87 kts | 163° |
| 2026-05-04 20:51 | 48.10835 | 16.58291 | 618 ft | 50 kts | 174° |
| 2026-05-04 20:51 | 48.10586 | 16.58234 | 609 ft | 20 kts | 202° |
| 2026-05-04 20:51 | 48.10562 | 16.58124 | 612 ft | 12 kts | 309° |
| 2026-05-04 20:52 | 48.10642 | 16.58105 | 613 ft | 12 kts | 345° |
| 2026-05-04 20:52 | 48.10719 | 16.58081 | 611 ft | 2 kts | 0° |
| 2026-05-04 20:52 | 48.10732 | 16.58076 | 613 ft | 2 kts | 342° |
| 2026-05-04 20:52 | 48.10748 | 16.58065 | 616 ft | 3 kts | 334° |
| 2026-05-04 20:53 | 48.10772 | 16.58049 | 609 ft | 5 kts | 338° |
| 2026-05-04 20:53 | 48.10804 | 16.58031 | 612 ft | 5 kts | 340° |
| 2026-05-04 20:53 | 48.10839 | 16.58015 | 614 ft | 5 kts | 344° |
| 2026-05-04 20:53 | 48.10877 | 16.57999 | 609 ft | 6 kts | 344° |
| 2026-05-04 20:54 | 48.10918 | 16.57983 | 613 ft | 6 kts | 344° |
| 2026-05-04 20:54 | 48.10963 | 16.57965 | 624 ft | 7 kts | 346° |
| 2026-05-04 20:54 | 48.11011 | 16.57947 | 611 ft | 7 kts | 346° |
| 2026-05-04 20:54 | 48.11063 | 16.57924 | 609 ft | 8 kts | 339° |
| 2026-05-04 20:55 | 48.11105 | 16.57870 | 613 ft | 8 kts | 303° |
| 2026-05-04 20:55 | 48.11132 | 16.57791 | 613 ft | 9 kts | 295° |
| 2026-05-04 20:55 | 48.11159 | 16.57710 | 619 ft | 9 kts | 296° |
| 2026-05-04 20:55 | 48.11184 | 16.57631 | 616 ft | 9 kts | 296° |
| 2026-05-04 20:56 | 48.11210 | 16.57552 | 611 ft | 8 kts | 296° |
| 2026-05-04 20:56 | 48.11235 | 16.57475 | 612 ft | 8 kts | 296° |
| 2026-05-04 20:56 | 48.11259 | 16.57401 | 614 ft | 8 kts | 296° |
| 2026-05-04 20:56 | 48.11292 | 16.57341 | 614 ft | 8 kts | 335° |
| 2026-05-04 20:57 | 48.11342 | 16.57350 | 609 ft | 7 kts | 20° |
| 2026-05-04 20:57 | 48.11388 | 16.57380 | 611 ft | 7 kts | 20° |
| 2026-05-04 20:57 | 48.11433 | 16.57360 | 609 ft | 7 kts | 315° |
| 2026-05-04 20:57 | 48.11458 | 16.57298 | 609 ft | 7 kts | 297° |
| 2026-05-04 20:58 | 48.11479 | 16.57234 | 616 ft | 7 kts | 295° |
| 2026-05-04 20:58 | 48.11477 | 16.57171 | 615 ft | 7 kts | 230° |
| 2026-05-04 20:58 | 48.11438 | 16.57138 | 614 ft | 6 kts | 206° |
| 2026-05-04 20:58 | 48.11430 | 16.57133 | 611 ft | 0 kts | 206° |